sensor_id;sensor_type;location;lat;lon;timestamp;P1;durP1;ratioP1;P2;durP2;ratioP2
42670;SDS011;28283;55.426;37.756;2023-07-20T00:04:47;1.75;;;0.50;;
42670;SDS011;28283;55.426;37.756;2023-07-20T00:09:48;2.63;;;0.80;;
42670;SDS011;28283;55.426;37.756;2023-07-20T00:14:48;1.23;;;0.40;;
42670;SDS011;28283;55.426;37.756;2023-07-20T00:19:49;3.17;;;0.40;;
42670;SDS011;28283;55.426;37.756;2023-07-20T00:24:49;1.13;;;0.50;;
42670;SDS011;28283;55.426;37.756;2023-07-20T00:29:50;1.67;;;0.50;;
42670;SDS011;28283;55.426;37.756;2023-07-20T00:34:51;6.77;;;0.97;;
42670;SDS011;28283;55.426;37.756;2023-07-20T00:39:52;1.13;;;0.50;;
42670;SDS011;28283;55.426;37.756;2023-07-20T00:44:53;2.30;;;0.73;;
42670;SDS011;28283;55.426;37.756;2023-07-20T00:49:54;3.95;;;0.60;;
42670;SDS011;28283;55.426;37.756;2023-07-20T00:54:54;6.40;;;1.35;;
42670;SDS011;28283;55.426;37.756;2023-07-20T00:59:56;2.75;;;0.60;;
42670;SDS011;28283;55.426;37.756;2023-07-20T01:04:57;4.18;;;0.82;;
42670;SDS011;28283;55.426;37.756;2023-07-20T01:15:06;1.30;;;0.60;;
42670;SDS011;28283;55.426;37.756;2023-07-20T01:20:08;1.73;;;0.47;;
42670;SDS011;28283;55.426;37.756;2023-07-20T01:35:59;1.10;;;0.65;;
42670;SDS011;28283;55.426;37.756;2023-07-20T01:41:01;2.20;;;0.50;;
42670;SDS011;28283;55.426;37.756;2023-07-20T01:51:03;3.65;;;0.30;;
42670;SDS011;28283;55.426;37.756;2023-07-20T01:56:04;2.67;;;0.87;;
42670;SDS011;28283;55.426;37.756;2023-07-20T02:01:05;3.17;;;0.60;;
42670;SDS011;28283;55.426;37.756;2023-07-20T02:06:05;3.50;;;0.77;;
42670;SDS011;28283;55.426;37.756;2023-07-20T02:11:06;3.23;;;1.17;;
42670;SDS011;28283;55.426;37.756;2023-07-20T02:16:07;4.22;;;0.90;;
42670;SDS011;28283;55.426;37.756;2023-07-20T02:21:07;4.67;;;0.70;;
42670;SDS011;28283;55.426;37.756;2023-07-20T02:26:10;1.80;;;0.52;;
42670;SDS011;28283;55.426;37.756;2023-07-20T02:31:11;1.77;;;0.40;;
42670;SDS011;28283;55.426;37.756;2023-07-20T02:36:12;1.58;;;0.70;;
42670;SDS011;28283;55.426;37.756;2023-07-20T02:41:13;0.65;;;0.60;;
42670;SDS011;28283;55.426;37.756;2023-07-20T02:46:14;0.43;;;0.10;;
42670;SDS011;28283;55.426;37.756;2023-07-20T02:51:14;4.43;;;0.70;;
42670;SDS011;28283;55.426;37.756;2023-07-20T02:56:15;3.63;;;0.43;;
42670;SDS011;28283;55.426;37.756;2023-07-20T03:01:16;3.38;;;0.60;;
42670;SDS011;28283;55.426;37.756;2023-07-20T03:06:17;0.43;;;0.30;;
42670;SDS011;28283;55.426;37.756;2023-07-20T03:11:18;2.10;;;0.47;;
42670;SDS011;28283;55.426;37.756;2023-07-20T03:16:19;1.75;;;0.73;;
42670;SDS011;28283;55.426;37.756;2023-07-20T03:21:20;1.55;;;0.90;;
42670;SDS011;28283;55.426;37.756;2023-07-20T03:26:21;1.00;;;0.70;;
42670;SDS011;28283;55.426;37.756;2023-07-20T03:31:21;3.83;;;0.37;;
42670;SDS011;28283;55.426;37.756;2023-07-20T03:36:22;1.43;;;0.50;;
42670;SDS011;28283;55.426;37.756;2023-07-20T03:41:23;0.20;;;0.10;;
42670;SDS011;28283;55.426;37.756;2023-07-20T03:46:23;2.17;;;0.43;;
42670;SDS011;28283;55.426;37.756;2023-07-20T03:51:24;2.10;;;0.25;;
42670;SDS011;28283;55.426;37.756;2023-07-20T03:56:25;0.70;;;0.30;;
42670;SDS011;28283;55.426;37.756;2023-07-20T04:01:26;0.40;;;0.30;;
42670;SDS011;28283;55.426;37.756;2023-07-20T04:06:27;1.40;;;0.70;;
42670;SDS011;28283;55.426;37.756;2023-07-20T04:11:27;1.15;;;0.50;;
42670;SDS011;28283;55.426;37.756;2023-07-20T04:16:28;0.98;;;0.47;;
42670;SDS011;28283;55.426;37.756;2023-07-20T04:21:29;0.63;;;0.30;;
42670;SDS011;28283;55.426;37.756;2023-07-20T04:26:29;0.82;;;0.28;;
42670;SDS011;28283;55.426;37.756;2023-07-20T04:31:30;0.65;;;0.30;;
42670;SDS011;28283;55.426;37.756;2023-07-20T04:36:33;1.17;;;0.25;;
42670;SDS011;28283;55.426;37.756;2023-07-20T04:41:34;1.08;;;0.30;;
42670;SDS011;28283;55.426;37.756;2023-07-20T04:46:34;0.10;;;0.10;;
42670;SDS011;28283;55.426;37.756;2023-07-20T04:51:35;2.97;;;0.10;;
42670;SDS011;28283;55.426;37.756;2023-07-20T04:56:36;3.13;;;0.35;;
42670;SDS011;28283;55.426;37.756;2023-07-20T05:01:37;4.40;;;0.45;;
42670;SDS011;28283;55.426;37.756;2023-07-20T05:06:37;0.68;;;0.13;;
42670;SDS011;28283;55.426;37.756;2023-07-20T05:11:39;0.47;;;0.20;;
42670;SDS011;28283;55.426;37.756;2023-07-20T05:16:39;2.88;;;0.43;;
42670;SDS011;28283;55.426;37.756;2023-07-20T05:21:40;1.95;;;0.30;;
42670;SDS011;28283;55.426;37.756;2023-07-20T05:26:41;0.88;;;0.38;;
42670;SDS011;28283;55.426;37.756;2023-07-20T05:31:41;0.75;;;0.40;;
42670;SDS011;28283;55.426;37.756;2023-07-20T05:36:42;1.63;;;0.20;;
42670;SDS011;28283;55.426;37.756;2023-07-20T05:41:43;0.55;;;0.20;;
42670;SDS011;28283;55.426;37.756;2023-07-20T05:46:43;4.85;;;0.50;;
42670;SDS011;28283;55.426;37.756;2023-07-20T05:51:44;2.10;;;0.57;;
42670;SDS011;28283;55.426;37.756;2023-07-20T05:56:46;0.43;;;0.30;;
42670;SDS011;28283;55.426;37.756;2023-07-20T06:01:47;1.05;;;0.30;;
42670;SDS011;28283;55.426;37.756;2023-07-20T06:06:49;0.60;;;0.30;;
42670;SDS011;28283;55.426;37.756;2023-07-20T06:11:49;0.75;;;0.08;;
42670;SDS011;28283;55.426;37.756;2023-07-20T06:16:50;0.98;;;0.10;;
42670;SDS011;28283;55.426;37.756;2023-07-20T06:21:51;1.23;;;0.20;;
42670;SDS011;28283;55.426;37.756;2023-07-20T06:31:52;0.80;;;0.10;;
42670;SDS011;28283;55.426;37.756;2023-07-20T06:36:52;0.93;;;0.20;;
42670;SDS011;28283;55.426;37.756;2023-07-20T06:41:53;3.72;;;0.52;;
42670;SDS011;28283;55.426;37.756;2023-07-20T06:51:55;0.22;;;0.20;;
42670;SDS011;28283;55.426;37.756;2023-07-20T06:56:55;2.45;;;0.20;;
42670;SDS011;28283;55.426;37.756;2023-07-20T07:01:56;0.30;;;0.20;;
42670;SDS011;28283;55.426;37.756;2023-07-20T07:06:57;0.90;;;0.20;;
42670;SDS011;28283;55.426;37.756;2023-07-20T07:11:57;0.45;;;0.10;;
42670;SDS011;28283;55.426;37.756;2023-07-20T07:21:59;0.80;;;0.17;;
42670;SDS011;28283;55.426;37.756;2023-07-20T07:32:01;1.38;;;0.22;;
42670;SDS011;28283;55.426;37.756;2023-07-20T07:37:01;1.75;;;0.40;;
42670;SDS011;28283;55.426;37.756;2023-07-20T07:47:03;1.85;;;0.20;;
42670;SDS011;28283;55.426;37.756;2023-07-20T07:57:04;5.00;;;0.57;;
42670;SDS011;28283;55.426;37.756;2023-07-20T08:07:06;0.90;;;0.45;;
42670;SDS011;28283;55.426;37.756;2023-07-20T08:17:07;5.55;;;1.10;;
42670;SDS011;28283;55.426;37.756;2023-07-20T08:27:09;0.47;;;0.20;;
42670;SDS011;28283;55.426;37.756;2023-07-20T08:37:10;0.40;;;0.20;;
42670;SDS011;28283;55.426;37.756;2023-07-20T08:47:14;0.47;;;0.20;;
42670;SDS011;28283;55.426;37.756;2023-07-20T08:52:16;1.67;;;0.50;;
42670;SDS011;28283;55.426;37.756;2023-07-20T09:02:18;0.10;;;0.10;;
42670;SDS011;28283;55.426;37.756;2023-07-20T09:07:22;0.65;;;0.20;;
42670;SDS011;28283;55.426;37.756;2023-07-20T09:17:25;0.32;;;0.20;;
42670;SDS011;28283;55.426;37.756;2023-07-20T09:22:29;0.30;;;0.20;;
42670;SDS011;28283;55.426;37.756;2023-07-20T09:27:44;2.10;;;0.50;;
42670;SDS011;28283;55.426;37.756;2023-07-20T09:32:47;0.77;;;0.40;;
42670;SDS011;28283;55.426;37.756;2023-07-20T09:37:55;0.73;;;0.70;;
42670;SDS011;28283;55.426;37.756;2023-07-20T09:42:59;4.93;;;0.50;;
42670;SDS011;28283;55.426;37.756;2023-07-20T09:48:05;3.72;;;0.50;;
42670;SDS011;28283;55.426;37.756;2023-07-20T09:53:07;1.10;;;0.73;;
42670;SDS011;28283;55.426;37.756;2023-07-20T09:58:11;1.20;;;0.50;;
42670;SDS011;28283;55.426;37.756;2023-07-20T10:03:13;3.72;;;0.40;;
42670;SDS011;28283;55.426;37.756;2023-07-20T10:08:18;0.50;;;0.10;;
42670;SDS011;28283;55.426;37.756;2023-07-20T10:13:27;2.63;;;0.82;;
42670;SDS011;28283;55.426;37.756;2023-07-20T10:18:41;0.90;;;0.40;;
42670;SDS011;28283;55.426;37.756;2023-07-20T10:23:50;2.08;;;0.60;;
42670;SDS011;28283;55.426;37.756;2023-07-20T10:33:51;2.40;;;0.50;;
42670;SDS011;28283;55.426;37.756;2023-07-20T10:38:53;3.42;;;0.47;;
42670;SDS011;28283;55.426;37.756;2023-07-20T10:44:02;1.75;;;0.35;;
42670;SDS011;28283;55.426;37.756;2023-07-20T10:49:08;1.30;;;0.47;;
42670;SDS011;28283;55.426;37.756;2023-07-20T10:59:20;1.15;;;0.63;;
42670;SDS011;28283;55.426;37.756;2023-07-20T11:04:43;2.97;;;1.30;;
42670;SDS011;28283;55.426;37.756;2023-07-20T11:09:45;1.65;;;0.60;;
42670;SDS011;28283;55.426;37.756;2023-07-20T11:14:56;3.00;;;0.80;;
42670;SDS011;28283;55.426;37.756;2023-07-20T11:19:57;2.63;;;0.75;;
42670;SDS011;28283;55.426;37.756;2023-07-20T11:25:03;1.80;;;0.40;;
42670;SDS011;28283;55.426;37.756;2023-07-20T11:30:05;1.70;;;0.50;;
42670;SDS011;28283;55.426;37.756;2023-07-20T11:35:16;1.40;;;0.80;;
42670;SDS011;28283;55.426;37.756;2023-07-20T11:40:17;0.60;;;0.50;;
42670;SDS011;28283;55.426;37.756;2023-07-20T11:45:19;1.85;;;0.40;;
42670;SDS011;28283;55.426;37.756;2023-07-20T11:50:20;0.50;;;0.38;;
42670;SDS011;28283;55.426;37.756;2023-07-20T12:00:24;1.73;;;0.50;;
42670;SDS011;28283;55.426;37.756;2023-07-20T12:05:25;4.70;;;0.90;;
42670;SDS011;28283;55.426;37.756;2023-07-20T12:10:28;0.65;;;0.38;;
42670;SDS011;28283;55.426;37.756;2023-07-20T12:15:30;1.55;;;0.50;;
42670;SDS011;28283;55.426;37.756;2023-07-20T12:20:35;3.80;;;0.40;;
42670;SDS011;28283;55.426;37.756;2023-07-20T12:25:38;1.88;;;0.32;;
42670;SDS011;28283;55.426;37.756;2023-07-20T12:30:40;0.40;;;0.40;;
42670;SDS011;28283;55.426;37.756;2023-07-20T12:35:41;1.20;;;0.28;;
42670;SDS011;28283;55.426;37.756;2023-07-20T12:40:43;1.27;;;0.50;;
42670;SDS011;28283;55.426;37.756;2023-07-20T12:45:44;1.42;;;0.20;;
42670;SDS011;28283;55.426;37.756;2023-07-20T12:50:44;0.63;;;0.63;;
42670;SDS011;28283;55.426;37.756;2023-07-20T12:55:45;2.28;;;0.40;;
42670;SDS011;28283;55.426;37.756;2023-07-20T13:00:46;1.38;;;0.77;;
42670;SDS011;28283;55.426;37.756;2023-07-20T13:05:47;4.68;;;0.40;;
42670;SDS011;28283;55.426;37.756;2023-07-20T13:10:47;1.08;;;0.40;;
42670;SDS011;28283;55.426;37.756;2023-07-20T13:15:49;1.00;;;0.20;;
42670;SDS011;28283;55.426;37.756;2023-07-20T13:20:50;1.00;;;0.47;;
42670;SDS011;28283;55.426;37.756;2023-07-20T13:25:51;6.10;;;0.40;;
42670;SDS011;28283;55.426;37.756;2023-07-20T13:30:51;1.00;;;0.32;;
42670;SDS011;28283;55.426;37.756;2023-07-20T13:35:52;2.05;;;0.93;;
42670;SDS011;28283;55.426;37.756;2023-07-20T13:40:53;1.20;;;0.50;;
42670;SDS011;28283;55.426;37.756;2023-07-20T13:45:53;1.15;;;0.60;;
42670;SDS011;28283;55.426;37.756;2023-07-20T13:50:54;2.15;;;0.25;;
42670;SDS011;28283;55.426;37.756;2023-07-20T13:55:55;1.45;;;0.52;;
42670;SDS011;28283;55.426;37.756;2023-07-20T14:00:57;1.98;;;1.10;;
42670;SDS011;28283;55.426;37.756;2023-07-20T14:10:58;2.37;;;1.03;;
42670;SDS011;28283;55.426;37.756;2023-07-20T14:15:58;4.97;;;1.15;;
42670;SDS011;28283;55.426;37.756;2023-07-20T14:20:59;1.40;;;0.82;;
42670;SDS011;28283;55.426;37.756;2023-07-20T14:26:02;1.25;;;0.60;;
42670;SDS011;28283;55.426;37.756;2023-07-20T14:31:05;1.02;;;0.40;;
42670;SDS011;28283;55.426;37.756;2023-07-20T14:36:06;3.00;;;1.30;;
42670;SDS011;28283;55.426;37.756;2023-07-20T14:41:07;3.30;;;0.50;;
42670;SDS011;28283;55.426;37.756;2023-07-20T14:46:07;1.23;;;0.30;;
42670;SDS011;28283;55.426;37.756;2023-07-20T14:51:08;7.78;;;0.25;;
42670;SDS011;28283;55.426;37.756;2023-07-20T15:01:10;0.47;;;0.20;;
42670;SDS011;28283;55.426;37.756;2023-07-20T15:11:11;0.90;;;0.47;;
42670;SDS011;28283;55.426;37.756;2023-07-20T15:21:13;0.52;;;0.30;;
42670;SDS011;28283;55.426;37.756;2023-07-20T15:26:14;0.68;;;0.63;;
42670;SDS011;28283;55.426;37.756;2023-07-20T15:31:15;0.35;;;0.17;;
42670;SDS011;28283;55.426;37.756;2023-07-20T15:41:16;2.60;;;0.50;;
42670;SDS011;28283;55.426;37.756;2023-07-20T15:51:20;0.60;;;0.35;;
42670;SDS011;28283;55.426;37.756;2023-07-20T16:01:21;1.80;;;0.50;;
42670;SDS011;28283;55.426;37.756;2023-07-20T16:06:22;2.13;;;0.32;;
42670;SDS011;28283;55.426;37.756;2023-07-20T16:11:22;1.23;;;0.50;;
42670;SDS011;28283;55.426;37.756;2023-07-20T16:16:23;1.15;;;0.40;;
42670;SDS011;28283;55.426;37.756;2023-07-20T16:21:24;1.65;;;0.40;;
42670;SDS011;28283;55.426;37.756;2023-07-20T16:26:25;1.30;;;0.30;;
42670;SDS011;28283;55.426;37.756;2023-07-20T16:31:25;0.30;;;0.20;;
42670;SDS011;28283;55.426;37.756;2023-07-20T16:36:26;0.68;;;0.30;;
42670;SDS011;28283;55.426;37.756;2023-07-20T16:41:27;1.13;;;0.50;;
42670;SDS011;28283;55.426;37.756;2023-07-20T16:46:27;0.35;;;0.30;;
42670;SDS011;28283;55.426;37.756;2023-07-20T16:51:28;0.98;;;0.50;;
42670;SDS011;28283;55.426;37.756;2023-07-20T16:56:29;3.88;;;0.70;;
42670;SDS011;28283;55.426;37.756;2023-07-20T17:01:29;0.93;;;0.75;;
42670;SDS011;28283;55.426;37.756;2023-07-20T17:06:30;1.33;;;0.68;;
42670;SDS011;28283;55.426;37.756;2023-07-20T17:11:30;2.75;;;0.60;;
42670;SDS011;28283;55.426;37.756;2023-07-20T17:16:31;3.72;;;0.70;;
42670;SDS011;28283;55.426;37.756;2023-07-20T17:26:32;0.80;;;0.80;;
42670;SDS011;28283;55.426;37.756;2023-07-20T17:31:32;0.35;;;0.30;;
42670;SDS011;28283;55.426;37.756;2023-07-20T17:36:34;2.53;;;0.98;;
42670;SDS011;28283;55.426;37.756;2023-07-20T17:46:35;3.23;;;0.80;;
42670;SDS011;28283;55.426;37.756;2023-07-20T17:56:37;2.55;;;0.80;;
42670;SDS011;28283;55.426;37.756;2023-07-20T18:06:38;2.60;;;0.70;;
42670;SDS011;28283;55.426;37.756;2023-07-20T18:11:39;1.35;;;0.70;;
42670;SDS011;28283;55.426;37.756;2023-07-20T18:16:39;5.72;;;1.02;;
42670;SDS011;28283;55.426;37.756;2023-07-20T18:21:40;2.38;;;1.15;;
42670;SDS011;28283;55.426;37.756;2023-07-20T18:26:41;4.07;;;0.90;;
42670;SDS011;28283;55.426;37.756;2023-07-20T18:36:42;2.67;;;0.80;;
42670;SDS011;28283;55.426;37.756;2023-07-20T18:41:42;3.40;;;0.73;;
42670;SDS011;28283;55.426;37.756;2023-07-20T18:51:43;2.30;;;1.00;;
42670;SDS011;28283;55.426;37.756;2023-07-20T18:56:44;2.42;;;1.00;;
42670;SDS011;28283;55.426;37.756;2023-07-20T19:01:44;2.50;;;1.45;;
42670;SDS011;28283;55.426;37.756;2023-07-20T19:06:46;2.13;;;0.95;;
42670;SDS011;28283;55.426;37.756;2023-07-20T19:11:46;2.03;;;1.10;;
42670;SDS011;28283;55.426;37.756;2023-07-20T19:16:47;3.88;;;1.17;;
42670;SDS011;28283;55.426;37.756;2023-07-20T19:21:47;5.05;;;1.95;;
42670;SDS011;28283;55.426;37.756;2023-07-20T19:26:49;2.17;;;1.38;;
42670;SDS011;28283;55.426;37.756;2023-07-20T19:31:49;3.50;;;1.50;;
42670;SDS011;28283;55.426;37.756;2023-07-20T19:36:50;3.28;;;1.67;;
42670;SDS011;28283;55.426;37.756;2023-07-20T19:41:50;1.98;;;1.40;;
42670;SDS011;28283;55.426;37.756;2023-07-20T19:46:51;4.40;;;1.30;;
42670;SDS011;28283;55.426;37.756;2023-07-20T19:51:52;1.95;;;1.30;;
42670;SDS011;28283;55.426;37.756;2023-07-20T19:56:53;4.40;;;1.33;;
42670;SDS011;28283;55.426;37.756;2023-07-20T20:06:55;7.15;;;1.48;;
42670;SDS011;28283;55.426;37.756;2023-07-20T20:11:56;5.60;;;2.53;;
42670;SDS011;28283;55.426;37.756;2023-07-20T20:16:57;5.10;;;2.30;;
42670;SDS011;28283;55.426;37.756;2023-07-20T20:21:58;6.40;;;2.25;;
42670;SDS011;28283;55.426;37.756;2023-07-20T20:27:01;5.63;;;2.13;;
42670;SDS011;28283;55.426;37.756;2023-07-20T20:32:02;5.07;;;2.13;;
42670;SDS011;28283;55.426;37.756;2023-07-20T20:37:04;5.45;;;2.20;;
42670;SDS011;28283;55.426;37.756;2023-07-20T20:42:05;5.68;;;2.28;;
42670;SDS011;28283;55.426;37.756;2023-07-20T20:52:07;5.57;;;2.30;;
42670;SDS011;28283;55.426;37.756;2023-07-20T20:57:07;5.45;;;1.70;;
42670;SDS011;28283;55.426;37.756;2023-07-20T21:02:08;5.97;;;2.33;;
42670;SDS011;28283;55.426;37.756;2023-07-20T21:07:12;6.97;;;2.95;;
42670;SDS011;28283;55.426;37.756;2023-07-20T21:12:13;6.95;;;4.15;;
42670;SDS011;28283;55.426;37.756;2023-07-20T21:17:14;8.93;;;4.45;;
42670;SDS011;28283;55.426;37.756;2023-07-20T21:22:14;12.48;;;4.70;;
42670;SDS011;28283;55.426;37.756;2023-07-20T21:27:15;7.17;;;3.50;;
42670;SDS011;28283;55.426;37.756;2023-07-20T21:32:15;11.63;;;3.90;;
42670;SDS011;28283;55.426;37.756;2023-07-20T21:37:17;7.20;;;3.00;;
42670;SDS011;28283;55.426;37.756;2023-07-20T21:42:18;5.13;;;3.70;;
42670;SDS011;28283;55.426;37.756;2023-07-20T21:47:20;6.68;;;2.45;;
42670;SDS011;28283;55.426;37.756;2023-07-20T21:52:20;5.73;;;2.93;;
42670;SDS011;28283;55.426;37.756;2023-07-20T21:57:21;4.60;;;2.28;;
42670;SDS011;28283;55.426;37.756;2023-07-20T22:02:21;5.83;;;1.93;;
42670;SDS011;28283;55.426;37.756;2023-07-20T22:07:22;4.18;;;1.92;;
42670;SDS011;28283;55.426;37.756;2023-07-20T22:12:23;3.37;;;1.80;;
42670;SDS011;28283;55.426;37.756;2023-07-20T22:17:23;6.40;;;2.07;;
42670;SDS011;28283;55.426;37.756;2023-07-20T22:22:24;7.03;;;2.50;;
42670;SDS011;28283;55.426;37.756;2023-07-20T22:27:24;4.20;;;2.07;;
42670;SDS011;28283;55.426;37.756;2023-07-20T22:32:25;4.23;;;2.30;;
42670;SDS011;28283;55.426;37.756;2023-07-20T22:37:26;3.88;;;2.13;;
42670;SDS011;28283;55.426;37.756;2023-07-20T22:42:27;4.63;;;2.22;;
42670;SDS011;28283;55.426;37.756;2023-07-20T22:47:28;10.18;;;2.60;;
42670;SDS011;28283;55.426;37.756;2023-07-20T22:52:28;7.53;;;2.47;;
42670;SDS011;28283;55.426;37.756;2023-07-20T22:57:32;3.47;;;2.10;;
42670;SDS011;28283;55.426;37.756;2023-07-20T23:02:33;5.03;;;2.42;;
42670;SDS011;28283;55.426;37.756;2023-07-20T23:07:36;5.07;;;2.28;;
42670;SDS011;28283;55.426;37.756;2023-07-20T23:12:38;10.07;;;2.65;;
42670;SDS011;28283;55.426;37.756;2023-07-20T23:17:42;4.75;;;1.90;;
42670;SDS011;28283;55.426;37.756;2023-07-20T23:22:44;2.20;;;2.00;;
42670;SDS011;28283;55.426;37.756;2023-07-20T23:27:48;5.47;;;2.55;;
42670;SDS011;28283;55.426;37.756;2023-07-20T23:32:50;3.22;;;2.50;;
42670;SDS011;28283;55.426;37.756;2023-07-20T23:37:52;6.28;;;2.47;;
42670;SDS011;28283;55.426;37.756;2023-07-20T23:42:53;8.38;;;2.80;;
42670;SDS011;28283;55.426;37.756;2023-07-20T23:47:53;4.07;;;2.70;;
42670;SDS011;28283;55.426;37.756;2023-07-20T23:52:54;3.63;;;2.75;;
42670;SDS011;28283;55.426;37.756;2023-07-20T23:57:55;5.13;;;2.22;;
